createdAt,value
2023-01-01T00:00:23.326Z,77.06
2023-01-01T00:02:51.127Z,77.29
2023-01-01T00:05:18.409Z,77.22
2023-01-01T00:07:45.783Z,77.05
2023-01-01T00:10:28.436Z,76.83
2023-01-01T00:12:57.552Z,77.12
2023-01-01T00:15:26.311Z,76.21
2023-01-01T00:17:54.285Z,76.13
2023-01-01T00:20:21.875Z,75.94
2023-01-01T00:22:57.029Z,75.55
2023-01-01T00:25:25.170Z,75.33
2023-01-01T00:27:52.912Z,77.94
2023-01-01T00:30:20.210Z,79.50
2023-01-01T00:32:54.657Z,78.65
2023-01-01T00:35:24.984Z,78.31
2023-01-01T00:37:52.967Z,77.73
2023-01-01T00:40:20.263Z,78.73
2023-01-01T00:42:47.910Z,78.49
2023-01-01T00:45:21.009Z,78.58
2023-01-01T00:47:52.211Z,78.78
2023-01-01T00:50:20.819Z,77.86
2023-01-01T00:52:49.301Z,77.14
2023-01-01T00:55:17.545Z,76.70
2023-01-01T00:57:44.799Z,76.72
2023-01-01T01:00:12.685Z,75.70
2023-01-01T01:02:40.524Z,75.69
2023-01-01T01:05:08.358Z,76.20
2023-01-01T01:07:36.856Z,75.99
2023-01-01T01:10:05.264Z,75.52
2023-01-01T01:12:34.423Z,75.01
2023-01-01T01:15:01.948Z,75.91
2023-01-01T01:17:31.315Z,77.27
2023-01-01T01:19:58.923Z,77.22
2023-01-01T01:22:28.879Z,77.40
2023-01-01T01:24:57.980Z,77.00
2023-01-01T01:27:27.071Z,77.21
2023-01-01T01:29:54.865Z,76.17
2023-01-01T01:32:22.451Z,76.26
2023-01-01T01:34:49.843Z,75.93
2023-01-01T01:37:17.124Z,76.77
2023-01-01T01:39:46.808Z,76.23
2023-01-01T01:42:19.452Z,76.48
2023-01-01T01:44:47.355Z,76.95
2023-01-01T01:47:29.839Z,76.36
2023-01-01T01:50:11.744Z,76.75
2023-01-01T01:52:47.909Z,77.10
2023-01-01T01:55:15.677Z,77.16
2023-01-01T01:57:43.311Z,76.93
2023-01-01T02:00:11.999Z,75.75
2023-01-01T02:02:50.951Z,76.00
2023-01-01T02:05:20.577Z,76.09
2023-01-01T02:07:49.963Z,75.88
2023-01-01T02:10:17.345Z,75.60
2023-01-01T02:12:44.778Z,75.60
2023-01-01T02:15:12.757Z,75.80
2023-01-01T02:18:03.517Z,76.38
2023-01-01T02:20:31.152Z,76.10
2023-01-01T02:23:16.165Z,76.10
2023-01-01T02:26:07.950Z,75.99
2023-01-01T02:28:51.557Z,77.57
2023-01-01T02:31:26.389Z,77.03
2023-01-01T02:33:58.495Z,76.58
2023-01-01T02:36:28.016Z,77.23
2023-01-01T02:38:58.262Z,75.76
2023-01-01T02:41:31.229Z,76.08
2023-01-01T02:46:32.097Z,76.46
2023-01-01T02:49:03.330Z,76.87
2023-01-01T02:51:52.380Z,77.55
2023-01-01T02:54:20.080Z,77.27
2023-01-01T02:57:09.539Z,76.72
2023-01-01T03:00:17.447Z,77.28
2023-01-01T03:03:16.105Z,78.34
2023-01-01T03:06:20.156Z,77.85
2023-01-01T03:09:02.726Z,77.32
2023-01-01T03:11:43.011Z,77.18
2023-01-01T03:14:25.150Z,77.39
2023-01-01T03:16:55.592Z,77.47
2023-01-01T03:19:37.589Z,78.06
2023-01-01T03:22:13.895Z,77.15
2023-01-01T03:25:07.323Z,77.40
2023-01-01T03:27:46.614Z,77.62
2023-01-01T03:30:16.998Z,77.11
2023-01-01T03:33:01.897Z,77.01
2023-01-01T03:35:44.302Z,76.66
2023-01-01T03:38:43.656Z,76.66
2023-01-01T03:41:17.216Z,76.61
2023-01-01T03:43:56.725Z,76.79
2023-01-01T03:46:28.967Z,76.82
2023-01-01T03:49:03.027Z,76.33
2023-01-01T03:51:53.194Z,76.62
2023-01-01T03:54:39.436Z,78.74
2023-01-01T03:57:48.496Z,78.71
2023-01-01T04:00:23.311Z,78.66
2023-01-01T04:03:03.138Z,78.34
2023-01-01T04:05:35.704Z,77.96
2023-01-01T04:08:04.139Z,77.46
2023-01-01T04:10:34.731Z,77.99
2023-01-01T04:13:05.678Z,77.46
2023-01-01T04:15:34.005Z,77.25
2023-01-01T04:18:01.622Z,77.31
2023-01-01T04:20:28.893Z,77.73
2023-01-01T04:22:58.345Z,77.55
2023-01-01T04:25:28.154Z,76.54
2023-01-01T04:27:58.551Z,75.99
2023-01-01T04:30:27.119Z,75.62
2023-01-01T04:32:55.258Z,75.58
2023-01-01T04:35:22.892Z,76.23
2023-01-01T04:37:50.662Z,75.82
2023-01-01T04:40:18.092Z,75.80
2023-01-01T04:42:45.421Z,76.27
2023-01-01T04:45:15.425Z,76.39
2023-01-01T04:47:43.305Z,76.35
2023-01-01T04:50:10.888Z,77.01
2023-01-01T04:52:38.716Z,76.75
2023-01-01T04:55:06.567Z,76.79
2023-01-01T04:57:33.966Z,76.26
2023-01-01T05:00:01.558Z,76.21
2023-01-01T05:02:29.055Z,76.09
2023-01-01T05:04:58.053Z,76.32
2023-01-01T05:07:25.785Z,76.59
2023-01-01T05:09:53.099Z,75.93
2023-01-01T05:12:20.536Z,76.04
2023-01-01T05:14:48.181Z,75.71
2023-01-01T05:17:15.506Z,75.93
2023-01-01T05:19:43.160Z,75.46
2023-01-01T05:22:11.364Z,75.99
2023-01-01T05:24:38.904Z,75.96
2023-01-01T05:27:06.104Z,75.91
2023-01-01T05:29:33.617Z,76.23
2023-01-01T05:32:01.035Z,76.42
2023-01-01T05:36:56.445Z,76.18
2023-01-01T05:39:23.782Z,76.09
2023-01-01T05:41:52.111Z,76.44
2023-01-01T05:44:20.949Z,76.26
2023-01-01T05:46:48.293Z,77.06
2023-01-01T05:49:15.715Z,77.63
2023-01-01T05:51:43.257Z,77.95
2023-01-01T05:56:37.253Z,76.75
2023-01-01T05:59:05.066Z,76.86
2023-01-01T06:01:32.946Z,76.84
2023-01-01T06:04:01.018Z,76.83
2023-01-01T06:06:30.901Z,76.63
2023-01-01T06:09:00.735Z,76.89
2023-01-01T06:11:29.619Z,76.11
2023-01-01T06:13:58.946Z,76.08
2023-01-01T06:16:26.779Z,75.80
2023-01-01T06:18:54.884Z,75.97
2023-01-01T06:21:24.791Z,77.52
2023-01-01T06:23:52.783Z,77.20
2023-01-01T06:26:26.849Z,77.06
2023-01-01T06:28:55.841Z,77.33
2023-01-01T06:31:24.122Z,77.66
2023-01-01T06:33:51.831Z,77.02
2023-01-01T06:36:21.463Z,77.13
2023-01-01T06:38:52.663Z,77.12
2023-01-01T06:41:22.609Z,77.37
2023-01-01T06:43:50.803Z,77.75
2023-01-01T06:46:19.325Z,78.52
2023-01-01T06:48:49.203Z,76.64
2023-01-01T06:51:19.934Z,75.88
2023-01-01T06:53:48.509Z,75.68
2023-01-01T06:56:16.100Z,75.60
2023-01-01T06:58:44.044Z,76.28
2023-01-01T07:01:14.245Z,75.93
2023-01-01T07:03:42.502Z,74.24
2023-01-01T07:06:11.195Z,74.74
2023-01-01T07:08:38.661Z,74.60
2023-01-01T07:11:06.098Z,73.97
2023-01-01T07:13:33.807Z,74.06
2023-01-01T07:16:05.369Z,72.96
2023-01-01T07:18:36.440Z,72.79
2023-01-01T07:21:06.023Z,75.22
2023-01-01T07:23:35.189Z,75.11
2023-01-01T07:26:05.446Z,73.54
2023-01-01T07:28:32.994Z,73.29
2023-01-01T07:31:00.492Z,72.72
2023-01-01T07:33:28.189Z,72.28
2023-01-01T07:35:55.479Z,72.30
2023-01-01T07:38:22.868Z,72.87
2023-01-01T07:40:50.652Z,72.81
2023-01-01T07:43:17.943Z,71.53
2023-01-01T07:45:45.434Z,71.64
2023-01-01T07:48:15.696Z,71.33
2023-01-01T07:50:44.372Z,72.40
2023-01-01T07:53:12.760Z,71.52
2023-01-01T07:55:40.292Z,72.13
2023-01-01T07:58:07.658Z,72.07
2023-01-01T08:00:35.442Z,71.62
2023-01-01T08:03:03.763Z,71.21
2023-01-01T08:05:31.115Z,71.61
2023-01-01T08:07:58.497Z,72.72
2023-01-01T08:10:26.106Z,74.42
2023-01-01T08:12:59.585Z,76.99
2023-01-01T08:15:28.000Z,77.12
2023-01-01T08:18:00.025Z,76.05
2023-01-01T08:20:29.472Z,77.27
2023-01-01T08:23:01.416Z,77.31
2023-01-01T08:25:32.410Z,77.36
2023-01-01T08:27:59.829Z,78.82
2023-01-01T08:30:27.392Z,78.51
2023-01-01T08:32:55.190Z,77.50
2023-01-01T08:35:22.539Z,75.26
2023-01-01T08:37:49.750Z,75.13
2023-01-01T08:40:17.482Z,75.23
2023-01-01T08:42:44.724Z,73.83
2023-01-01T08:45:12.047Z,73.81
2023-01-01T08:47:39.776Z,72.78
2023-01-01T08:50:07.688Z,72.50
2023-01-01T08:52:34.916Z,70.68
2023-01-01T08:55:02.543Z,69.86
2023-01-01T08:57:33.031Z,68.06
2023-01-01T09:00:00.455Z,68.93
2023-01-01T09:02:28.200Z,67.93
2023-01-01T09:04:55.694Z,67.23
2023-01-01T09:07:22.994Z,65.52
2023-01-01T09:09:50.819Z,66.20
2023-01-01T09:12:18.194Z,64.90
2023-01-01T09:14:48.119Z,65.30
2023-01-01T09:17:15.810Z,64.81
2023-01-01T09:19:43.151Z,64.37
2023-01-01T09:22:11.301Z,67.43
2023-01-01T09:24:39.368Z,66.29
2023-01-01T09:27:06.791Z,65.95
2023-01-01T09:29:34.193Z,64.81
2023-01-01T09:32:01.927Z,63.93
2023-01-01T09:34:29.391Z,64.31
2023-01-01T09:36:56.711Z,64.98
2023-01-01T09:39:24.348Z,63.93
2023-01-01T09:42:23.973Z,63.07
2023-01-01T09:44:54.543Z,63.93
2023-01-01T09:47:28.163Z,64.92
2023-01-01T09:50:01.121Z,64.08
2023-01-01T09:52:40.902Z,63.64
2023-01-01T09:55:22.678Z,63.06
2023-01-01T09:57:50.222Z,61.21
2023-01-01T10:00:19.981Z,59.85
2023-01-01T10:03:07.743Z,59.51
2023-01-01T10:06:01.150Z,59.01
2023-01-01T10:08:41.429Z,59.23
2023-01-01T10:11:46.035Z,57.64
2023-01-01T10:14:49.118Z,56.53
2023-01-01T10:17:21.477Z,57.65
2023-01-01T10:20:04.524Z,55.38
2023-01-01T10:22:42.741Z,56.07
2023-01-01T10:25:24.978Z,55.86
2023-01-01T10:28:13.892Z,55.77
2023-01-01T10:30:43.175Z,56.42
2023-01-01T10:33:15.030Z,55.02
2023-01-01T10:35:49.204Z,54.45
2023-01-01T10:38:24.982Z,52.71
2023-01-01T10:41:01.235Z,52.35
2023-01-01T10:43:29.797Z,51.47
2023-01-01T10:46:00.401Z,48.93
2023-01-01T10:48:32.664Z,48.06
2023-01-01T10:51:14.247Z,48.32
2023-01-01T10:53:44.273Z,49.79
2023-01-01T10:56:20.575Z,49.39
2023-01-01T10:58:49.328Z,49.31
2023-01-01T11:01:21.730Z,48.84
2023-01-01T11:04:02.485Z,48.70
2023-01-01T11:06:38.881Z,47.51
2023-01-01T11:09:21.285Z,46.12
2023-01-01T11:12:07.909Z,45.63
2023-01-01T11:14:53.993Z,44.72
2023-01-01T11:17:30.060Z,43.88
2023-01-01T11:20:02.126Z,43.65
2023-01-01T11:22:46.916Z,44.04
2023-01-01T11:25:17.792Z,44.83
2023-01-01T11:27:45.398Z,44.24
2023-01-01T11:30:25.412Z,44.03
2023-01-01T11:33:04.364Z,43.04
2023-01-01T11:35:48.753Z,42.48
2023-01-01T11:38:29.812Z,42.41
2023-01-01T11:41:05.618Z,41.64
2023-01-01T11:43:47.264Z,39.90
2023-01-01T11:46:23.946Z,41.05
2023-01-01T11:48:54.844Z,40.89
2023-01-01T11:51:33.621Z,40.62
2023-01-01T11:54:32.914Z,40.63
2023-01-01T11:57:18.389Z,41.13
2023-01-01T12:00:09.531Z,40.31
2023-01-01T12:03:01.895Z,37.79
2023-01-01T12:05:48.821Z,36.68
2023-01-01T12:08:23.571Z,35.07
2023-01-01T12:11:17.185Z,34.62
2023-01-01T12:13:51.314Z,34.54
2023-01-01T12:16:27.565Z,36.30
2023-01-01T12:19:02.335Z,37.57
2023-01-01T12:21:32.881Z,37.98
2023-01-01T12:24:00.220Z,36.75
2023-01-01T12:26:42.049Z,35.52
2023-01-01T12:29:34.335Z,34.55
2023-01-01T12:32:07.289Z,34.27
2023-01-01T12:35:04.175Z,34.32
2023-01-01T12:37:46.394Z,33.43
2023-01-01T12:40:26.191Z,33.57
2023-01-01T12:43:10.273Z,32.26
2023-01-01T12:46:24.496Z,31.75
2023-01-01T12:48:57.566Z,31.25
2023-01-01T12:51:43.460Z,29.63
2023-01-01T12:54:43.000Z,29.25
2023-01-01T12:57:44.252Z,29.01
2023-01-01T13:00:17.325Z,29.29
2023-01-01T13:02:55.801Z,28.19
2023-01-01T13:05:34.586Z,26.60
2023-01-01T13:08:04.698Z,26.48
2023-01-01T13:10:39.154Z,25.57
2023-01-01T13:13:07.624Z,25.79
2023-01-01T13:15:37.917Z,26.04
2023-01-01T13:18:20.237Z,24.85
2023-01-01T13:21:02.849Z,24.80
2023-01-01T13:23:30.173Z,24.97
2023-01-01T13:26:23.208Z,24.24
2023-01-01T13:28:59.846Z,23.88
2023-01-01T13:31:40.266Z,24.75
2023-01-01T13:34:35.571Z,24.64
2023-01-01T13:37:15.370Z,27.04
2023-01-01T13:40:24.481Z,30.22
2023-01-01T13:43:04.099Z,33.19
2023-01-01T13:49:01.134Z,39.26
2023-01-01T13:52:09.547Z,40.52
2023-01-01T13:54:41.698Z,42.00
2023-01-01T13:57:36.228Z,44.21
2023-01-01T14:00:21.512Z,45.63
2023-01-01T14:02:59.371Z,46.41
2023-01-01T14:05:33.808Z,47.70
2023-01-01T14:08:01.606Z,48.65
2023-01-01T14:10:35.225Z,48.79
2023-01-01T14:13:05.815Z,48.98
2023-01-01T14:15:36.955Z,49.39
2023-01-01T14:18:11.246Z,50.44
2023-01-01T14:20:48.117Z,51.78
2023-01-01T14:23:33.747Z,52.25
2023-01-01T14:26:03.911Z,51.80
2023-01-01T14:28:34.253Z,51.77
2023-01-01T14:31:10.713Z,51.18
2023-01-01T14:33:39.713Z,51.48
2023-01-01T14:36:15.094Z,51.40
2023-01-01T14:38:46.207Z,51.10
2023-01-01T14:41:32.068Z,51.37
2023-01-01T14:44:19.084Z,51.20
2023-01-01T14:46:51.972Z,51.72
2023-01-01T14:49:30.157Z,51.49
2023-01-01T14:52:02.155Z,51.67
2023-01-01T14:54:33.513Z,52.60
2023-01-01T14:57:01.286Z,52.85
2023-01-01T14:59:33.599Z,53.06
2023-01-01T15:02:15.082Z,53.22
2023-01-01T15:04:42.597Z,53.56
2023-01-01T15:07:27.658Z,52.94
2023-01-01T15:09:57.452Z,54.76
2023-01-01T15:12:25.183Z,54.89
2023-01-01T15:14:55.008Z,55.02
2023-01-01T15:17:25.630Z,56.12
2023-01-01T15:20:04.879Z,56.57
2023-01-01T15:22:39.192Z,56.44
2023-01-01T15:25:13.842Z,56.41
2023-01-01T15:27:41.305Z,56.70
2023-01-01T15:30:22.588Z,57.90
2023-01-01T15:32:50.019Z,57.55
2023-01-01T15:35:47.626Z,59.10
2023-01-01T15:38:26.441Z,58.05
2023-01-01T15:40:54.137Z,58.39
2023-01-01T15:43:27.176Z,59.20
2023-01-01T15:46:00.504Z,59.49
2023-01-01T15:48:37.750Z,59.32
2023-01-01T15:51:16.154Z,59.59
2023-01-01T15:53:50.762Z,59.69
2023-01-01T15:56:20.698Z,59.36
2023-01-01T15:58:56.536Z,60.29
2023-01-01T16:01:28.312Z,60.19
2023-01-01T16:04:14.077Z,60.60
2023-01-01T16:06:46.699Z,61.07
2023-01-01T16:09:16.400Z,61.07
2023-01-01T16:11:44.571Z,61.42
2023-01-01T16:14:12.384Z,61.12
2023-01-01T16:16:43.919Z,61.69
2023-01-01T16:19:16.974Z,61.91
2023-01-01T16:21:44.841Z,61.96
2023-01-01T16:24:17.443Z,63.04
2023-01-01T16:26:45.978Z,64.30
2023-01-01T16:29:14.026Z,64.24
2023-01-01T16:31:42.582Z,64.91
2023-01-01T16:34:13.472Z,64.33
2023-01-01T16:36:41.300Z,65.88
2023-01-01T16:39:08.739Z,64.80
2023-01-01T16:41:39.882Z,64.36
2023-01-01T16:44:07.270Z,66.75
2023-01-01T16:46:34.845Z,66.16
2023-01-01T16:49:04.998Z,64.83
2023-01-01T16:51:34.735Z,67.23
2023-01-01T16:54:03.340Z,69.19
2023-01-01T16:56:31.240Z,66.81
2023-01-01T16:59:03.140Z,65.95
2023-01-01T17:01:32.263Z,66.54
2023-01-01T17:04:00.853Z,66.33
2023-01-01T17:06:28.182Z,66.10
2023-01-01T17:08:55.897Z,66.83
2023-01-01T17:11:25.152Z,66.99
2023-01-01T17:13:52.941Z,65.91
2023-01-01T17:16:27.055Z,66.29
2023-01-01T17:21:47.171Z,66.45
2023-01-01T17:24:19.410Z,66.60
2023-01-01T17:26:52.989Z,67.39
2023-01-01T17:29:22.527Z,67.77
2023-01-01T17:31:51.617Z,67.84
2023-01-01T17:34:21.829Z,68.35
2023-01-01T17:36:50.711Z,68.91
2023-01-01T17:39:18.521Z,67.91
2023-01-01T17:41:46.674Z,68.52
2023-01-01T17:44:15.016Z,67.31
2023-01-01T17:46:44.587Z,68.21
2023-01-01T17:49:12.164Z,68.06
2023-01-01T17:51:40.125Z,68.02
2023-01-01T17:54:10.810Z,68.73
2023-01-01T17:56:38.275Z,68.86
2023-01-01T17:59:06.539Z,68.90
2023-01-01T18:01:36.339Z,68.97
2023-01-01T18:04:07.906Z,69.57
2023-01-01T18:06:41.440Z,69.53
2023-01-01T18:09:12.279Z,69.07
2023-01-01T18:11:40.511Z,69.30
2023-01-01T18:14:07.962Z,69.01
2023-01-01T18:16:37.395Z,69.04
2023-01-01T18:19:05.531Z,70.10
2023-01-01T18:21:34.270Z,70.17
2023-01-01T18:24:02.423Z,70.02
2023-01-01T18:26:31.807Z,69.79
2023-01-01T18:29:02.570Z,70.48
2023-01-01T18:31:32.868Z,69.96
2023-01-01T18:34:03.504Z,70.50
2023-01-01T18:36:34.107Z,70.05
2023-01-01T18:39:03.058Z,69.89
2023-01-01T18:41:45.871Z,69.72
2023-01-01T18:44:22.192Z,70.18
2023-01-01T18:47:01.016Z,70.86
2023-01-01T18:49:28.455Z,70.64
2023-01-01T18:52:02.891Z,71.34
2023-01-01T18:54:30.326Z,71.64
2023-01-01T18:57:16.763Z,71.02
2023-01-01T18:59:44.050Z,70.61
2023-01-01T19:02:27.758Z,70.97
2023-01-01T19:05:16.998Z,70.06
2023-01-01T19:08:07.129Z,71.00
2023-01-01T19:10:39.165Z,71.44
2023-01-01T19:13:31.619Z,71.64
2023-01-01T19:16:11.576Z,71.28
2023-01-01T19:18:43.690Z,71.58
2023-01-01T19:21:11.004Z,70.08
2023-01-01T19:23:45.171Z,71.12
2023-01-01T19:26:19.581Z,70.50
2023-01-01T19:28:51.670Z,70.62
2023-01-01T19:31:19.375Z,70.21
2023-01-01T19:33:47.279Z,70.59
2023-01-01T19:36:14.752Z,71.00
2023-01-01T19:38:42.759Z,70.72
2023-01-01T19:41:11.207Z,71.41
2023-01-01T19:43:38.794Z,71.68
2023-01-01T19:46:06.187Z,70.29
2023-01-01T19:48:33.919Z,70.38
2023-01-01T19:51:01.371Z,71.65
2023-01-01T19:53:28.957Z,71.87
2023-01-01T19:55:56.852Z,71.42
2023-01-01T19:58:24.536Z,71.67
2023-01-01T20:00:53.077Z,71.63
2023-01-01T20:06:10.154Z,71.36
2023-01-01T20:08:38.951Z,71.55
2023-01-01T20:11:07.235Z,72.63
2023-01-01T20:13:34.751Z,71.71
2023-01-01T20:16:03.270Z,72.58
2023-01-01T20:18:30.836Z,71.81
2023-01-01T20:21:20.516Z,71.29
2023-01-01T20:23:53.211Z,71.76
2023-01-01T20:26:21.115Z,72.27
2023-01-01T20:29:06.890Z,72.83
2023-01-01T20:31:34.784Z,72.95
2023-01-01T20:34:02.421Z,72.67
2023-01-01T20:36:48.476Z,72.78
2023-01-01T20:39:16.212Z,71.96
2023-01-01T20:41:43.567Z,73.06
2023-01-01T20:44:11.024Z,72.95
2023-01-01T20:46:38.721Z,71.69
2023-01-01T20:49:06.137Z,71.26
2023-01-01T20:51:33.932Z,73.32
2023-01-01T20:54:01.653Z,72.99
2023-01-01T20:56:30.439Z,72.75
2023-01-01T20:59:04.428Z,71.30
2023-01-01T21:01:40.459Z,72.00
2023-01-01T21:04:08.214Z,73.40
2023-01-01T21:06:35.756Z,73.27
2023-01-01T21:09:06.753Z,72.89
2023-01-01T21:11:35.243Z,72.85
2023-01-01T21:14:03.048Z,73.06
2023-01-01T21:16:36.948Z,72.79
2023-01-01T21:19:08.595Z,72.31
2023-01-01T21:21:41.757Z,73.46
2023-01-01T21:24:21.378Z,72.70
2023-01-01T21:26:48.871Z,74.27
2023-01-01T21:29:20.523Z,74.51
2023-01-01T21:31:53.502Z,73.52
2023-01-01T21:34:28.009Z,73.58
2023-01-01T21:37:01.999Z,73.72
2023-01-01T21:39:31.344Z,73.43
2023-01-01T21:42:25.138Z,72.63
2023-01-01T21:44:57.599Z,73.09
2023-01-01T21:47:25.991Z,72.53
2023-01-01T21:49:56.767Z,71.81
2023-01-01T21:52:26.013Z,72.28
2023-01-01T21:54:53.683Z,72.86
2023-01-01T21:57:25.285Z,72.30
2023-01-01T21:59:54.419Z,72.71
2023-01-01T22:02:37.569Z,72.59
2023-01-01T22:05:30.087Z,73.65
2023-01-01T22:07:59.450Z,73.91
2023-01-01T22:10:34.689Z,73.81
2023-01-01T22:13:02.272Z,74.58
2023-01-01T22:15:39.782Z,75.47
2023-01-01T22:18:10.205Z,75.23
2023-01-01T22:20:39.865Z,76.01
2023-01-01T22:23:23.774Z,76.04
2023-01-01T22:25:53.134Z,75.85
2023-01-01T22:28:27.465Z,75.56
2023-01-01T22:31:00.957Z,75.44
2023-01-01T22:33:47.967Z,74.50
2023-01-01T22:36:30.661Z,74.39
2023-01-01T22:39:02.114Z,75.97
2023-01-01T22:41:29.825Z,76.24
2023-01-01T22:44:03.863Z,75.62
2023-01-01T22:46:39.393Z,75.34
2023-01-01T22:49:23.248Z,74.96
2023-01-01T22:51:54.883Z,75.54
2023-01-01T22:54:22.316Z,75.03
2023-01-01T22:56:50.247Z,75.12
2023-01-01T22:59:18.051Z,75.02
2023-01-01T23:01:45.405Z,75.89
2023-01-01T23:04:12.971Z,75.94
2023-01-01T23:06:40.801Z,76.51
2023-01-01T23:09:08.646Z,76.54
2023-01-01T23:11:36.060Z,76.73
2023-01-01T23:14:22.261Z,76.80
2023-01-01T23:16:49.948Z,77.61
2023-01-01T23:19:17.744Z,78.29
2023-01-01T23:21:45.779Z,78.83
2023-01-01T23:24:20.209Z,79.65
2023-01-01T23:26:48.643Z,78.53
2023-01-01T23:29:17.439Z,77.87
2023-01-01T23:31:45.687Z,79.56
2023-01-01T23:34:13.783Z,80.30
2023-01-01T23:36:43.404Z,79.27
2023-01-01T23:39:11.025Z,78.84
2023-01-01T23:41:38.741Z,78.31
2023-01-01T23:44:06.175Z,78.74
2023-01-01T23:46:38.585Z,79.61
2023-01-01T23:49:07.079Z,79.91
2023-01-01T23:51:35.371Z,79.39
2023-01-01T23:54:02.672Z,79.98
2023-01-01T23:56:31.446Z,79.39
2023-01-01T23:58:58.683Z,79.02
